Boulder, CO (80301)

5:56 AM MDT on August 26, 2016 (GMT -0600)
63rd St and Jay Rd | | Change Station

Elev 5202 ft 40.06 °N, 105.21 °W | Updated 8 seconds ago

Scattered Clouds
Scattered Clouds
54.1 °F
Feels Like 54.1 °F
N
0.9
Wind Variable Wind from NNW
Gusts 3.0 mph

Today
High -- | Low -- °F
--% Chance of Precip.
Yesterday
High -- | Low -- °F
Precip. -- in
Pressure 30.17 in
Visibility 7.0 miles
Clouds Scattered Clouds 9000 ft
Dew Point 51 °F
Humidity 90%
Rainfall 0.00 in
Snow Depth Not available.
6:23 AM 7:40 PM
Waning Crescent, 35% visible
METAR KLMO 261154Z AUTO 33004KT 7SM SCT090 13/11 A3017 RMK AO2 T01310111
Pressure 30.17 in
Visibility 7.0 miles
Clouds Scattered Clouds 9000 ft
Dew Point 51 °F
Humidity 90%
Rainfall 0.00 in
Snow Depth Not available.
6:23 AM 7:40 PM
Waning Crescent, 35% visible
METAR KLMO 261154Z AUTO 33004KT 7SM SCT090 13/11 A3017 RMK AO2 T01310111

10-Day Weather Forecast

Almanac

Astronomy

Aug. 26, 2016 Rise Set
Actual Time
Civil Twilight
Nautical Twilight
Astronomical Twilight
Moon
Length of Visible Light
Length of Day
Tomorrow will be .
, % of the Moon is Illuminated

Today's Extremes

State Highs State Lows

Community

WunderPhotos

Upload Photos

1,935,071 photos uploaded!

WunderBlog® & News

Nearby

Air Quality

  Air Quality AQ Index Pollutant
Not available.

Snow Depth

Station Depth Elevation

Earthquake Activity

City Distance Mag. Time & Date
Minimum magnitude displayed is 2.5.

Coastal Water Temperatures

Place Temperature

Stations

Nearby Weather Stations

Station Location Temp. Windchill Dew Point Humidity Wind Precip. Elev Updated Type
                   

Watches & Warnings

There are currently no watches in effect.